createdAt,value
2023-04-20T00:07:02.318Z,1.95
2023-04-20T00:17:06.614Z,2.03
2023-04-20T00:27:09.314Z,2.28
2023-04-20T00:37:13.352Z,2.00
2023-04-20T00:47:16.050Z,1.83
2023-04-20T00:57:24.040Z,1.98
2023-04-20T01:07:26.855Z,2.00
2023-04-20T01:17:30.963Z,1.92
2023-04-20T01:27:35.000Z,2.20
2023-04-20T01:37:37.950Z,2.10
2023-04-20T01:47:41.999Z,1.88
2023-04-20T01:57:44.742Z,1.75
2023-04-20T02:07:48.760Z,2.08
2023-04-20T02:17:52.175Z,1.60
2023-04-20T02:27:56.985Z,1.77
2023-04-20T02:37:59.642Z,1.92
2023-04-20T02:48:03.761Z,1.73
2023-04-20T02:58:06.936Z,1.83
2023-04-20T03:08:10.932Z,1.80
2023-04-20T03:18:13.636Z,1.40
2023-04-20T03:28:17.696Z,1.45
2023-04-20T03:38:21.155Z,1.30
2023-04-20T03:48:25.167Z,1.73
2023-04-20T03:58:27.992Z,1.38
2023-04-20T04:08:32.497Z,1.60
2023-04-20T04:18:35.246Z,1.30
2023-04-20T04:28:39.321Z,2.00
2023-04-20T04:38:42.838Z,1.83
2023-04-20T04:48:46.913Z,1.75
2023-04-20T04:58:49.665Z,1.83
2023-04-20T05:08:53.637Z,1.50
2023-04-20T05:18:56.336Z,1.67
2023-04-20T05:29:00.291Z,9.73
2023-04-20T05:39:03.065Z,3.72
2023-04-20T05:49:07.191Z,2.50
2023-04-20T05:59:10.113Z,2.42
2023-04-20T06:09:14.260Z,2.50
2023-04-20T06:19:17.072Z,3.75
2023-04-20T06:29:21.267Z,2.88
2023-04-20T06:39:23.969Z,2.42
2023-04-20T06:49:27.967Z,3.03
2023-04-20T06:59:30.630Z,3.08
2023-04-20T07:09:34.624Z,3.45
2023-04-20T07:19:37.284Z,3.35
2023-04-20T07:29:41.425Z,3.20
2023-04-20T07:39:44.182Z,3.13
2023-04-20T07:49:48.200Z,3.00
2023-04-20T07:59:51.192Z,3.00
2023-04-20T08:09:55.168Z,3.38
2023-04-20T08:19:57.858Z,3.67
2023-04-20T08:30:04.167Z,3.17
2023-04-20T08:40:08.197Z,3.00
2023-04-20T08:50:12.364Z,3.58
2023-04-20T09:00:16.739Z,3.50
2023-04-20T09:10:20.763Z,3.45
2023-04-20T09:20:31.812Z,3.80
2023-04-20T09:30:43.680Z,4.15
2023-04-20T09:40:46.437Z,3.42
2023-04-20T09:50:51.770Z,3.63
2023-04-20T10:00:55.053Z,4.28
2023-04-20T10:10:59.179Z,4.30
2023-04-20T10:21:09.379Z,4.20
2023-04-20T10:31:15.445Z,4.63
2023-04-20T10:41:18.360Z,4.70
2023-04-20T10:51:22.726Z,5.05
2023-04-20T11:01:25.452Z,5.15
2023-04-20T11:11:29.627Z,5.28
2023-04-20T11:21:40.200Z,6.78
2023-04-20T11:31:51.563Z,6.03
2023-04-20T11:41:54.491Z,4.95
2023-04-20T11:51:58.568Z,5.43
2023-04-20T12:02:04.164Z,5.18
2023-04-20T12:12:09.910Z,5.20
2023-04-20T12:22:12.584Z,5.28
2023-04-20T12:32:16.599Z,6.20
2023-04-20T12:42:19.383Z,5.90
2023-04-20T12:52:23.431Z,5.32
2023-04-20T13:02:26.376Z,5.72
2023-04-20T13:12:30.522Z,5.60
2023-04-20T13:22:33.870Z,5.13
2023-04-20T13:32:39.149Z,4.47
2023-04-20T13:42:42.128Z,5.03
2023-04-20T13:52:46.401Z,5.07
2023-04-20T14:02:49.152Z,5.00
2023-04-20T14:12:53.247Z,4.65
2023-04-20T14:22:55.881Z,4.30
2023-04-20T14:33:01.214Z,5.22
2023-04-20T14:43:04.080Z,4.72
2023-04-20T14:53:08.088Z,4.57
2023-04-20T15:03:11.078Z,4.63
2023-04-20T15:13:15.527Z,5.10
2023-04-20T15:23:18.197Z,4.32
2023-04-20T15:33:22.222Z,4.45
2023-04-20T15:43:24.981Z,4.60
2023-04-20T15:53:28.987Z,4.75
2023-04-20T16:03:31.742Z,6.28
2023-04-20T16:13:36.749Z,5.32
2023-04-20T16:23:39.599Z,5.50
2023-04-20T16:33:43.669Z,4.60
2023-04-20T16:43:46.399Z,4.75
2023-04-20T16:53:50.722Z,5.40
2023-04-20T17:03:53.546Z,6.20
2023-04-20T17:13:57.689Z,5.75
2023-04-20T17:24:00.361Z,6.95
2023-04-20T17:34:04.453Z,6.88
2023-04-20T17:44:07.184Z,6.50
2023-04-20T17:54:11.374Z,6.80
2023-04-20T18:04:14.251Z,6.88
2023-04-20T18:14:18.544Z,6.40
2023-04-20T18:24:21.694Z,6.30
2023-04-20T18:34:29.695Z,6.82
2023-04-20T18:44:32.459Z,6.15
2023-04-20T18:54:38.369Z,7.90
2023-04-20T19:04:41.206Z,7.95
2023-04-20T19:14:47.037Z,7.45
2023-04-20T19:24:52.350Z,7.93
2023-04-20T19:34:59.084Z,7.57
2023-04-20T19:45:01.758Z,7.50
2023-04-20T19:55:07.382Z,8.52
2023-04-20T20:05:10.498Z,8.15
2023-04-20T20:15:14.901Z,8.20
2023-04-20T20:25:19.800Z,8.88
2023-04-20T20:35:23.954Z,8.77
2023-04-20T20:45:27.745Z,8.25
2023-04-20T20:55:31.930Z,8.57
2023-04-20T21:05:35.826Z,10.65
2023-04-20T21:15:40.564Z,10.77
2023-04-20T21:25:43.331Z,11.20
2023-04-20T21:35:47.447Z,11.60
2023-04-20T21:45:51.025Z,12.32
2023-04-20T21:55:55.082Z,12.23
2023-04-20T22:05:57.877Z,12.15
2023-04-20T22:16:01.977Z,33.22
2023-04-20T22:26:05.031Z,12.25
2023-04-20T22:36:10.537Z,11.27
2023-04-20T22:46:13.295Z,10.20
2023-04-20T22:56:17.354Z,9.40
2023-04-20T23:06:21.862Z,10.05
2023-04-20T23:16:28.163Z,10.30
2023-04-20T23:26:30.903Z,9.07
2023-04-20T23:36:34.984Z,9.65
2023-04-20T23:46:37.728Z,8.63
2023-04-20T23:56:41.739Z,8.23
